createdAt,value
2022-09-15T00:01:03.524Z,13.5
2022-09-15T00:04:03.537Z,13.4
2022-09-15T00:07:03.536Z,13.3
2022-09-15T00:10:03.538Z,13.2
2022-09-15T00:13:03.561Z,13.1
2022-09-15T00:16:03.540Z,13.1
2022-09-15T00:19:03.544Z,13
2022-09-15T00:22:03.544Z,13
2022-09-15T00:25:03.547Z,12.9
2022-09-15T00:28:03.550Z,12.9
2022-09-15T00:31:03.630Z,12.8
2022-09-15T00:34:03.554Z,12.7
2022-09-15T00:37:03.553Z,12.7
2022-09-15T00:40:03.593Z,12.6
2022-09-15T00:43:03.566Z,12.6
2022-09-15T00:46:03.668Z,12.6
2022-09-15T00:49:03.674Z,12.6
2022-09-15T00:52:03.559Z,12.6
2022-09-15T00:55:03.574Z,12.5
2022-09-15T00:58:03.574Z,12.5
2022-09-15T01:01:03.602Z,12.4
2022-09-15T01:04:03.580Z,12.5
2022-09-15T01:07:03.600Z,12.4
2022-09-15T01:10:03.583Z,12.4
2022-09-15T01:13:03.589Z,12.3
2022-09-15T01:16:03.666Z,12.3
2022-09-15T01:19:03.588Z,12.2
2022-09-15T01:22:03.589Z,12.2
2022-09-15T01:25:03.613Z,12.1
2022-09-15T01:28:03.589Z,12.1
2022-09-15T01:31:03.599Z,12.1
2022-09-15T01:34:03.593Z,12.1
2022-09-15T01:37:03.664Z,12
2022-09-15T01:40:03.645Z,12
2022-09-15T01:43:03.635Z,11.9
2022-09-15T01:46:03.724Z,11.9
2022-09-15T01:49:03.610Z,11.8
2022-09-15T01:52:03.623Z,11.7
2022-09-15T01:55:03.622Z,11.7
2022-09-15T01:58:03.622Z,11.7
2022-09-15T02:01:03.694Z,11.6
2022-09-15T02:04:03.632Z,11.6
2022-09-15T02:07:03.700Z,11.6
2022-09-15T02:10:03.641Z,11.5
2022-09-15T02:13:03.653Z,11.5
2022-09-15T02:16:03.686Z,11.5
2022-09-15T02:19:03.680Z,11.5
2022-09-15T02:22:03.734Z,11.4
2022-09-15T02:25:03.657Z,11.4
2022-09-15T02:28:03.665Z,11.3
2022-09-15T02:31:03.664Z,11.3
2022-09-15T02:34:03.666Z,11.3
2022-09-15T02:37:03.844Z,11.2
2022-09-15T02:40:03.724Z,11.2
2022-09-15T02:43:03.678Z,11.2
2022-09-15T02:46:03.723Z,11.2
2022-09-15T02:49:03.686Z,11.2
2022-09-15T02:52:03.689Z,11.2
2022-09-15T02:55:03.733Z,11.1
2022-09-15T02:58:03.706Z,11.1
2022-09-15T03:01:03.724Z,11.1
2022-09-15T03:04:03.706Z,11.1
2022-09-15T03:07:03.709Z,11.2
2022-09-15T03:10:03.710Z,11.2
2022-09-15T03:13:03.740Z,11.2
2022-09-15T03:16:03.751Z,11.2
2022-09-15T03:19:03.712Z,11.2
2022-09-15T03:22:03.713Z,11.2
2022-09-15T03:25:03.720Z,11.2
2022-09-15T03:28:03.716Z,11.2
2022-09-15T03:31:03.778Z,11.3
2022-09-15T03:34:03.719Z,11.3
2022-09-15T03:37:03.721Z,11.4
2022-09-15T03:40:03.824Z,11.5
2022-09-15T03:43:03.719Z,11.6
2022-09-15T03:46:03.806Z,11.6
2022-09-15T03:49:03.757Z,11.6
2022-09-15T03:52:03.737Z,11.6
2022-09-15T03:55:03.742Z,11.7
2022-09-15T03:58:03.746Z,11.7
2022-09-15T04:01:03.784Z,11.6
2022-09-15T04:04:03.753Z,11.7
2022-09-15T04:07:03.800Z,11.7
2022-09-15T04:10:03.767Z,11.7
2022-09-15T04:13:03.769Z,11.6
2022-09-15T04:16:03.801Z,11.6
2022-09-15T04:19:03.779Z,11.6
2022-09-15T04:22:03.786Z,11.6
2022-09-15T04:25:03.814Z,11.5
2022-09-15T04:28:03.798Z,11.5
2022-09-15T04:31:03.845Z,11.5
2022-09-15T04:34:03.812Z,11.5
2022-09-15T04:37:03.811Z,11.5
2022-09-15T04:40:03.835Z,11.5
2022-09-15T04:43:03.861Z,11.6
2022-09-15T04:46:03.828Z,11.7
2022-09-15T04:49:03.842Z,11.8
2022-09-15T04:52:06.652Z,11.9
2022-09-15T04:55:03.843Z,11.9
2022-09-15T04:58:03.842Z,12
2022-09-15T05:01:03.931Z,12.1
2022-09-15T05:04:03.904Z,12.1
2022-09-15T05:07:03.865Z,12.1
2022-09-15T05:10:03.867Z,12.2
2022-09-15T05:13:03.869Z,12.2
2022-09-15T05:16:03.902Z,12.3
2022-09-15T05:19:03.917Z,12.4
2022-09-15T05:22:03.883Z,12.4
2022-09-15T05:25:03.893Z,12.4
2022-09-15T05:28:03.897Z,12.5
2022-09-15T05:31:03.938Z,12.5
2022-09-15T05:34:03.917Z,12.5
2022-09-15T05:37:03.934Z,12.6
2022-09-15T05:40:08.209Z,12.7
2022-09-15T05:43:03.924Z,12.8
2022-09-15T05:46:03.975Z,12.8
2022-09-15T05:49:03.939Z,12.8
2022-09-15T05:52:03.934Z,12.8
2022-09-15T05:55:04.032Z,12.8
2022-09-15T05:58:03.945Z,12.9
2022-09-15T06:01:03.951Z,12.9
2022-09-15T06:04:03.960Z,12.9
2022-09-15T06:07:03.968Z,12.8
2022-09-15T06:10:03.979Z,12.8
2022-09-15T06:13:04.006Z,12.8
2022-09-15T06:16:04.031Z,12.9
2022-09-15T06:19:03.995Z,13
2022-09-15T06:22:03.989Z,13
2022-09-15T06:25:04.000Z,13.1
2022-09-15T06:28:04.003Z,13.2
2022-09-15T06:31:04.032Z,13.3
2022-09-15T06:34:04.036Z,13.5
2022-09-15T06:37:04.029Z,13.5
2022-09-15T06:40:04.052Z,13.7
2022-09-15T06:43:04.033Z,13.8
2022-09-15T06:46:04.100Z,13.8
2022-09-15T06:49:04.088Z,13.9
2022-09-15T06:52:04.054Z,14
2022-09-15T06:55:04.066Z,13.9
2022-09-15T06:58:04.074Z,13.8
2022-09-15T07:01:04.079Z,13.9
2022-09-15T07:04:04.080Z,13.9
2022-09-15T07:07:04.120Z,13.9
2022-09-15T07:10:04.104Z,13.9
2022-09-15T07:13:04.120Z,13.9
2022-09-15T07:16:04.388Z,14
2022-09-15T07:19:04.128Z,14
2022-09-15T07:22:04.136Z,14.2
2022-09-15T07:25:04.168Z,14.4
2022-09-15T07:28:04.138Z,14.6
2022-09-15T07:31:04.159Z,14.8
2022-09-15T07:34:04.166Z,14.9
2022-09-15T07:37:04.174Z,15
2022-09-15T07:40:04.233Z,15
2022-09-15T07:43:04.206Z,15
2022-09-15T07:46:04.275Z,15
2022-09-15T07:49:04.199Z,15
2022-09-15T07:52:04.209Z,14.9
2022-09-15T07:55:04.215Z,15
2022-09-15T07:58:04.219Z,15
2022-09-15T08:01:04.296Z,15.1
2022-09-15T08:04:04.230Z,15.3
2022-09-15T08:07:04.236Z,15.5
2022-09-15T08:10:04.246Z,15.7
2022-09-15T08:13:04.251Z,15.9
2022-09-15T08:16:04.278Z,16.1
2022-09-15T08:19:04.287Z,16.3
2022-09-15T08:22:04.274Z,16.3
2022-09-15T08:25:04.276Z,16.3
2022-09-15T08:28:04.302Z,16.2
2022-09-15T08:31:04.337Z,16.3
2022-09-15T08:34:04.299Z,16.3
2022-09-15T08:37:04.326Z,16.3
2022-09-15T08:40:04.343Z,16.2
2022-09-15T08:43:04.317Z,16.1
2022-09-15T08:46:04.376Z,16
2022-09-15T08:49:04.334Z,16
2022-09-15T08:52:04.338Z,16
2022-09-15T08:55:04.385Z,16.1
2022-09-15T08:58:04.353Z,16.1
2022-09-15T09:01:04.378Z,16.3
2022-09-15T09:04:04.366Z,16.5
2022-09-15T09:07:04.374Z,16.7
2022-09-15T09:10:04.377Z,16.9
2022-09-15T09:13:04.416Z,16.9
2022-09-15T09:16:04.419Z,16.9
2022-09-15T09:19:04.407Z,16.9
2022-09-15T09:22:04.408Z,17
2022-09-15T09:25:16.208Z,17
2022-09-15T09:28:04.427Z,16.8
2022-09-15T09:31:04.525Z,16.8
2022-09-15T09:34:04.442Z,17.1
2022-09-15T09:37:04.454Z,17.7
2022-09-15T09:40:04.479Z,18.3
2022-09-15T09:43:04.476Z,18.9
2022-09-15T09:46:04.511Z,19.3
2022-09-15T09:49:04.526Z,19.9
2022-09-15T09:52:04.493Z,20.3
2022-09-15T09:55:04.503Z,20.5
2022-09-15T09:58:04.508Z,20.9
2022-09-15T10:01:04.571Z,20.4
2022-09-15T10:04:04.529Z,19.8
2022-09-15T10:07:04.559Z,19.2
2022-09-15T10:10:04.542Z,18.8
2022-09-15T10:13:04.550Z,18.7
2022-09-15T10:16:04.561Z,19.1
2022-09-15T10:19:04.573Z,19.9
2022-09-15T10:22:04.581Z,20.5
2022-09-15T10:25:04.611Z,20.5
2022-09-15T10:28:04.601Z,20.3
2022-09-15T10:31:04.610Z,20.3
2022-09-15T10:34:04.619Z,20.3
2022-09-15T10:37:04.629Z,20.1
2022-09-15T10:40:04.697Z,20
2022-09-15T10:43:04.673Z,19.8
2022-09-15T10:46:04.745Z,19.5
2022-09-15T10:49:04.668Z,19.2
2022-09-15T10:52:04.679Z,19.2
2022-09-15T10:55:04.695Z,19.4
2022-09-15T10:58:04.707Z,19.3
2022-09-15T11:01:04.788Z,19.3
2022-09-15T11:04:04.718Z,19.3
2022-09-15T11:07:04.742Z,19.3
2022-09-15T11:10:04.741Z,19.6
2022-09-15T11:13:04.746Z,19.6
2022-09-15T11:16:04.783Z,19.6
2022-09-15T11:19:04.808Z,19.5
2022-09-15T11:22:04.783Z,19.5
2022-09-15T11:25:04.793Z,19.4
2022-09-15T11:28:04.800Z,19.3
2022-09-15T11:31:04.867Z,19
2022-09-15T11:34:04.823Z,18.6
2022-09-15T11:37:04.854Z,18.2
2022-09-15T11:40:04.917Z,17.8
2022-09-15T11:43:04.849Z,17.4
2022-09-15T11:46:04.885Z,16.9
2022-09-15T11:49:04.874Z,16.5
2022-09-15T11:52:04.880Z,16.1
2022-09-15T11:55:04.916Z,16
2022-09-15T11:58:04.900Z,16.1
2022-09-15T12:01:04.917Z,16.3
2022-09-15T12:04:04.927Z,16.5
2022-09-15T12:07:04.937Z,16.6
2022-09-15T12:10:04.957Z,16.8
2022-09-15T12:13:04.986Z,16.9
2022-09-15T12:16:05.105Z,16.7
2022-09-15T12:19:05.001Z,16.6
2022-09-15T12:22:04.989Z,16.5
2022-09-15T12:25:05.006Z,16.4
2022-09-15T12:28:05.022Z,16.4
2022-09-15T12:31:05.105Z,16.4
2022-09-15T12:34:05.041Z,16.6
2022-09-15T12:37:05.057Z,16.9
2022-09-15T12:40:05.262Z,17.3
2022-09-15T12:43:05.080Z,17.7
2022-09-15T12:46:05.131Z,17.9
2022-09-15T12:49:05.129Z,18.2
2022-09-15T12:52:05.117Z,18.3
2022-09-15T12:55:05.133Z,18.4
2022-09-15T12:58:05.143Z,18.6
2022-09-15T13:01:17.816Z,18.7
2022-09-15T13:04:05.175Z,18.6
2022-09-15T13:07:09.205Z,18.4
2022-09-15T13:10:05.199Z,18.2
2022-09-15T13:13:05.209Z,18.2
2022-09-15T13:16:05.283Z,18.1
2022-09-15T13:19:05.239Z,18.1
2022-09-15T13:22:05.256Z,18.1
2022-09-15T13:25:05.293Z,18
2022-09-15T13:28:05.344Z,18.1
2022-09-15T13:31:05.321Z,18.1
2022-09-15T13:40:05.382Z,18.1
2022-09-15T13:43:05.377Z,18.2
2022-09-15T13:46:05.381Z,18.2
2022-09-15T13:49:05.378Z,18.3
2022-09-15T13:52:05.392Z,18.3
2022-09-15T13:55:05.408Z,18.4
2022-09-15T14:01:05.764Z,18.3
2022-09-15T14:04:05.444Z,18.1
2022-09-15T14:07:05.492Z,17.9
2022-09-15T14:10:05.482Z,17.8
2022-09-15T14:13:05.496Z,17.7
2022-09-15T14:16:08.074Z,17.6
2022-09-15T14:19:05.541Z,17.7
2022-09-15T14:22:05.537Z,17.8
2022-09-15T14:25:05.548Z,17.9
2022-09-15T14:28:05.570Z,17.8
2022-09-15T14:31:05.581Z,17.7
2022-09-15T14:34:05.602Z,17.4
2022-09-15T14:37:05.637Z,16.7
2022-09-15T14:40:05.761Z,16.1
2022-09-15T14:43:05.647Z,15.6
2022-09-15T14:46:08.668Z,15.3
2022-09-15T14:49:05.685Z,15
2022-09-15T14:52:05.688Z,14.8
2022-09-15T14:55:05.745Z,14.7
2022-09-15T14:58:05.713Z,14.7
2022-09-15T15:01:05.801Z,14.8
2022-09-15T15:04:05.752Z,14.9
2022-09-15T15:07:05.766Z,15.1
2022-09-15T15:10:05.778Z,15.2
2022-09-15T15:13:05.810Z,15.3
2022-09-15T15:16:05.834Z,15.4
2022-09-15T15:19:05.829Z,15.6
2022-09-15T15:22:05.837Z,15.7
2022-09-15T15:25:05.853Z,15.8
2022-09-15T15:28:05.868Z,15.8
2022-09-15T15:31:05.912Z,15.8
2022-09-15T15:34:05.907Z,15.9
2022-09-15T15:37:05.919Z,15.9
2022-09-15T15:40:06.022Z,15.9
2022-09-15T15:43:05.949Z,15.9
2022-09-15T15:46:06.012Z,15.9
2022-09-15T15:49:06.003Z,15.9
2022-09-15T15:52:05.993Z,16.1
2022-09-15T15:55:06.013Z,16.1
2022-09-15T15:58:06.152Z,16.2
2022-09-15T16:01:06.069Z,16.2
2022-09-15T16:04:06.054Z,16.3
2022-09-15T16:07:06.104Z,16.3
2022-09-15T16:10:06.089Z,16.2
2022-09-15T16:13:06.113Z,16.1
2022-09-15T16:16:06.130Z,16
2022-09-15T16:19:06.136Z,15.8
2022-09-15T16:22:06.145Z,15.7
2022-09-15T16:25:06.190Z,15.6
2022-09-15T16:28:06.182Z,15.5
2022-09-15T16:31:06.269Z,15.3
2022-09-15T16:34:06.211Z,14.9
2022-09-15T16:37:06.228Z,14.5
2022-09-15T16:40:06.258Z,14.2
2022-09-15T16:43:06.279Z,14
2022-09-15T16:46:06.276Z,13.8
2022-09-15T16:49:06.288Z,13.7
2022-09-15T16:52:06.296Z,13.7
2022-09-15T16:55:06.310Z,13.7
2022-09-15T16:58:06.337Z,13.6
2022-09-15T17:01:06.489Z,13.6
2022-09-15T17:04:06.364Z,13.6
2022-09-15T17:07:06.375Z,13.6
2022-09-15T17:10:06.394Z,13.6
2022-09-15T17:13:06.403Z,13.5
2022-09-15T17:16:06.489Z,13.5
2022-09-15T17:19:06.464Z,13.5
2022-09-15T17:22:06.470Z,13.4
2022-09-15T17:25:06.467Z,13.4
2022-09-15T17:28:06.480Z,13.4
2022-09-15T17:31:06.540Z,13.3
2022-09-15T17:34:06.511Z,13.3
2022-09-15T17:37:06.552Z,13.3
2022-09-15T17:40:06.566Z,13.3
2022-09-15T17:43:06.557Z,13.2
2022-09-15T17:46:06.590Z,13.2
2022-09-15T17:49:06.580Z,13.2
2022-09-15T17:52:06.597Z,13.2
2022-09-15T17:55:06.631Z,13.2
2022-09-15T17:58:06.631Z,13.1
2022-09-15T18:01:06.645Z,13.1
2022-09-15T18:04:06.659Z,13.1
2022-09-15T18:07:06.669Z,13.1
2022-09-15T18:10:06.680Z,13
2022-09-15T18:13:06.730Z,13
2022-09-15T18:16:06.761Z,13
2022-09-15T18:19:06.717Z,13
2022-09-15T18:22:06.723Z,13
2022-09-15T18:25:06.743Z,12.9
2022-09-15T18:28:06.760Z,12.9
2022-09-15T18:31:06.863Z,12.9
2022-09-15T18:34:06.790Z,12.9
2022-09-15T18:37:06.806Z,12.8
2022-09-15T18:40:06.832Z,12.8
2022-09-15T18:43:06.831Z,12.8
2022-09-15T18:46:06.881Z,12.8
2022-09-15T18:49:06.892Z,12.9
2022-09-15T18:52:06.872Z,12.9
2022-09-15T18:55:06.882Z,12.9
2022-09-15T18:58:06.892Z,12.9
2022-09-15T19:01:07.069Z,12.9
2022-09-15T19:04:06.924Z,12.9
2022-09-15T19:07:06.953Z,13
2022-09-15T19:10:06.940Z,13
2022-09-15T19:13:06.953Z,13
2022-09-15T19:16:07.033Z,12.9
2022-09-15T19:19:06.972Z,12.8
2022-09-15T19:22:06.987Z,12.7
2022-09-15T19:25:07.035Z,12.6
2022-09-15T19:28:07.013Z,12.6
2022-09-15T19:31:07.061Z,12.6
2022-09-15T19:34:07.036Z,12.5
2022-09-15T19:37:11.438Z,12.5
2022-09-15T19:40:07.121Z,12.4
2022-09-15T19:43:07.100Z,12.4
2022-09-15T19:46:07.122Z,12.4
2022-09-15T19:49:07.090Z,12.3
2022-09-15T19:52:07.102Z,12.3
2022-09-15T19:55:07.110Z,12.2
2022-09-15T19:58:07.133Z,12.1
2022-09-15T20:01:07.205Z,12
2022-09-15T20:04:07.146Z,12
2022-09-15T20:07:07.154Z,11.9
2022-09-15T20:10:07.163Z,11.9
2022-09-15T20:13:07.192Z,11.9
2022-09-15T20:16:07.193Z,11.9
2022-09-15T20:19:07.222Z,11.9
2022-09-15T20:22:07.218Z,12
2022-09-15T20:25:07.222Z,12
2022-09-15T20:28:07.243Z,12.1
2022-09-15T20:31:07.289Z,12
2022-09-15T20:34:07.249Z,12.1
2022-09-15T20:37:07.335Z,12
2022-09-15T20:40:07.304Z,12
2022-09-15T20:43:07.288Z,11.9
2022-09-15T20:46:07.358Z,11.8
2022-09-15T20:49:07.309Z,11.7
2022-09-15T20:52:07.310Z,11.7
2022-09-15T20:55:07.342Z,11.7
2022-09-15T20:58:07.352Z,11.8
2022-09-15T21:01:07.437Z,11.8
2022-09-15T21:04:07.367Z,11.8
2022-09-15T21:07:07.360Z,11.8
2022-09-15T21:10:07.360Z,11.7
2022-09-15T21:13:07.416Z,11.7
2022-09-15T21:16:07.414Z,11.6
2022-09-15T21:19:07.400Z,11.5
2022-09-15T21:22:07.399Z,11.4
2022-09-15T21:25:07.416Z,11.4
2022-09-15T21:28:07.430Z,11.3
2022-09-15T21:31:07.454Z,11.3
2022-09-15T21:34:07.437Z,11.3
2022-09-15T21:37:07.439Z,11.3
2022-09-15T21:40:07.497Z,11.3
2022-09-15T21:43:07.465Z,11.3
2022-09-15T21:46:07.510Z,11.3
2022-09-15T21:49:07.491Z,11.3
2022-09-15T21:52:07.472Z,11.4
2022-09-15T21:55:07.486Z,11.5
2022-09-15T21:58:07.506Z,11.5
2022-09-15T22:01:07.538Z,11.5
2022-09-15T22:04:07.497Z,11.5
2022-09-15T22:07:07.532Z,11.5
2022-09-15T22:10:07.509Z,11.6
2022-09-15T22:13:07.528Z,11.6
2022-09-15T22:16:07.579Z,11.5
2022-09-15T22:19:07.528Z,11.5
2022-09-15T22:22:07.536Z,11.6
2022-09-15T22:25:07.563Z,11.6
2022-09-15T22:28:07.553Z,11.6
2022-09-15T22:31:07.565Z,11.6
2022-09-15T22:34:07.541Z,11.6
2022-09-15T22:37:07.553Z,11.6
2022-09-15T22:40:07.610Z,11.6
2022-09-15T22:43:07.603Z,11.5
2022-09-15T22:46:07.623Z,11.5
2022-09-15T22:49:07.567Z,11.4
2022-09-15T22:52:07.562Z,11.4
2022-09-15T22:55:07.578Z,11.4
2022-09-15T22:58:07.590Z,11.4
2022-09-15T23:01:07.628Z,11.4
2022-09-15T23:04:07.578Z,11.4
2022-09-15T23:07:07.580Z,11.4
2022-09-15T23:10:07.584Z,11.5
2022-09-15T23:13:07.583Z,11.5
2022-09-15T23:16:07.722Z,11.4
2022-09-15T23:19:07.625Z,11.4
2022-09-15T23:22:07.605Z,11.3
2022-09-15T23:25:07.593Z,11.3
2022-09-15T23:28:07.600Z,11.3
2022-09-15T23:31:07.659Z,11.2
2022-09-15T23:34:07.604Z,11.2
2022-09-15T23:37:07.635Z,11.1
2022-09-15T23:40:07.613Z,11.1
2022-09-15T23:43:07.615Z,11.1
2022-09-15T23:46:07.612Z,11.1
2022-09-15T23:49:07.614Z,11.1
2022-09-15T23:52:07.635Z,11.1
2022-09-15T23:55:07.689Z,11.1
2022-09-15T23:58:07.682Z,11.1
